createdAt,value
2019-06-08T00:00:02.885Z,31.77
2019-06-08T00:02:37.010Z,27.43
2019-06-08T00:05:12.967Z,26.97
2019-06-08T00:07:47.797Z,30.57
2019-06-08T00:10:25.743Z,24.63
2019-06-08T00:13:00.276Z,28.40
2019-06-08T00:15:35.533Z,24.37
2019-06-08T00:18:10.487Z,30.73
2019-06-08T00:20:43.927Z,27.30
2019-06-08T00:23:17.691Z,30.37
2019-06-08T00:25:51.466Z,27.37
2019-06-08T00:28:24.939Z,30.30
2019-06-08T00:31:00.137Z,33.60
2019-06-08T00:33:34.313Z,36.57
2019-06-08T00:36:28.911Z,35.10
2019-06-08T00:39:02.714Z,35.90
2019-06-08T00:41:37.819Z,40.30
2019-06-08T00:44:11.411Z,39.07
2019-06-08T00:46:44.923Z,36.20
2019-06-08T00:49:20.562Z,39.30
2019-06-08T00:51:55.486Z,35.63
2019-06-08T00:54:30.454Z,39.00
2019-06-08T00:57:05.477Z,35.23
2019-06-08T00:59:39.193Z,38.07
2019-06-08T01:02:12.970Z,38.38
2019-06-08T01:04:46.521Z,36.97
2019-06-08T01:07:22.033Z,36.45
2019-06-08T01:09:55.532Z,35.50
2019-06-08T01:12:29.028Z,39.07
2019-06-08T01:15:04.356Z,44.17
2019-06-08T01:17:39.580Z,38.77
2019-06-08T01:20:13.797Z,42.87
2019-06-08T01:22:49.837Z,39.87
2019-06-08T01:25:25.715Z,43.70
2019-06-08T01:28:01.088Z,38.77
2019-06-08T01:30:35.272Z,36.43
2019-06-08T01:33:10.347Z,36.00
2019-06-08T01:35:45.367Z,35.75
2019-06-08T01:38:21.049Z,37.73
2019-06-08T01:40:54.521Z,37.63
2019-06-08T01:43:28.115Z,39.20
2019-06-08T01:48:39.115Z,39.63
2019-06-08T01:51:14.551Z,51.87
2019-06-08T01:53:48.074Z,41.07
2019-06-08T01:56:23.158Z,37.80
2019-06-08T01:58:56.658Z,37.03
2019-06-08T02:01:30.363Z,45.57
2019-06-08T02:04:05.483Z,36.88
2019-06-08T02:06:38.981Z,38.00
2019-06-08T02:09:14.512Z,35.88
2019-06-08T02:11:49.806Z,44.17
2019-06-08T02:14:24.995Z,37.27
2019-06-08T02:17:00.261Z,39.60
2019-06-08T02:19:36.715Z,41.23
2019-06-08T02:22:11.913Z,45.53
2019-06-08T02:24:45.656Z,47.10
2019-06-08T02:27:20.930Z,45.77
2019-06-08T02:29:57.281Z,45.57
2019-06-08T02:32:32.693Z,43.13
2019-06-08T02:35:06.615Z,47.93
2019-06-08T02:37:42.971Z,56.25
2019-06-08T02:40:18.022Z,42.57
2019-06-08T02:42:51.871Z,50.70
2019-06-08T02:45:26.026Z,45.23
2019-06-08T02:47:59.605Z,51.30
2019-06-08T02:50:57.978Z,51.13
2019-06-08T02:53:34.127Z,51.07
2019-06-08T02:56:09.703Z,49.53
2019-06-08T02:58:46.514Z,54.20
2019-06-08T03:01:26.000Z,52.17
2019-06-08T03:04:03.719Z,57.90
2019-06-08T03:06:41.155Z,59.90
2019-06-08T03:09:13.974Z,52.30
2019-06-08T03:11:50.482Z,55.40
2019-06-08T03:14:25.929Z,49.65
2019-06-08T03:17:00.768Z,55.00
2019-06-08T03:19:35.665Z,58.70
2019-06-08T03:22:10.954Z,45.20
2019-06-08T03:24:44.124Z,53.83
2019-06-08T03:27:17.707Z,53.73
2019-06-08T03:29:52.845Z,46.83
2019-06-08T03:32:28.078Z,54.77
2019-06-08T03:35:01.783Z,58.40
2019-06-08T03:37:35.760Z,50.08
2019-06-08T03:40:11.684Z,74.67
2019-06-08T03:42:45.636Z,61.65
2019-06-08T03:45:21.667Z,51.92
2019-06-08T03:47:56.593Z,61.30
2019-06-08T03:50:31.398Z,41.07
2019-06-08T03:53:06.276Z,34.80
2019-06-08T03:55:43.048Z,34.90
2019-06-08T03:58:15.989Z,36.50
2019-06-08T04:00:50.833Z,29.70
2019-06-08T04:03:24.677Z,33.93
2019-06-08T04:05:59.378Z,33.00
2019-06-08T04:08:34.336Z,27.20
2019-06-08T04:11:07.996Z,30.08
2019-06-08T04:13:42.047Z,30.23
2019-06-08T04:16:15.609Z,25.95
2019-06-08T04:18:50.309Z,26.50
2019-06-08T04:21:25.580Z,21.33
2019-06-08T04:24:01.078Z,21.47
2019-06-08T04:26:36.236Z,21.90
2019-06-08T04:29:09.770Z,23.47
2019-06-08T04:31:45.921Z,23.87
2019-06-08T04:34:21.328Z,20.37
2019-06-08T04:36:55.812Z,25.30
2019-06-08T04:39:30.970Z,28.05
2019-06-08T04:42:05.951Z,22.17
2019-06-08T04:44:40.473Z,28.37
2019-06-08T04:47:15.485Z,23.10
2019-06-08T04:49:49.241Z,17.90
2019-06-08T04:52:24.489Z,22.87
2019-06-08T04:54:58.148Z,17.80
2019-06-08T04:57:32.946Z,16.27
2019-06-08T05:00:13.178Z,24.40
2019-06-08T05:02:46.978Z,22.22
2019-06-08T05:05:22.271Z,17.80
2019-06-08T05:07:55.967Z,20.93
2019-06-08T05:10:29.689Z,27.53
2019-06-08T05:13:03.452Z,22.43
2019-06-08T05:15:39.123Z,26.73
2019-06-08T05:18:12.671Z,30.80
2019-06-08T05:20:48.900Z,26.55
2019-06-08T05:23:25.057Z,32.13
2019-06-08T05:25:59.645Z,28.47
2019-06-08T05:28:33.283Z,30.63
2019-06-08T05:31:06.880Z,28.80
2019-06-08T05:33:41.313Z,28.93
2019-06-08T05:36:16.849Z,32.63
2019-06-08T05:38:50.467Z,27.55
2019-06-08T05:41:24.442Z,39.25
2019-06-08T05:43:58.118Z,26.60
2019-06-08T05:46:31.724Z,37.73
2019-06-08T05:49:05.516Z,33.55
2019-06-08T05:51:39.896Z,30.03
2019-06-08T05:54:15.261Z,35.40
2019-06-08T05:56:50.253Z,24.00
2019-06-08T05:59:23.743Z,33.00
2019-06-08T06:01:57.541Z,33.97
2019-06-08T06:04:32.722Z,34.38
2019-06-08T06:07:07.993Z,31.30
2019-06-08T06:09:45.131Z,25.85
2019-06-08T06:12:19.484Z,29.90
2019-06-08T06:14:53.252Z,29.00
2019-06-08T06:17:26.726Z,28.77
2019-06-08T06:20:01.774Z,25.40
2019-06-08T06:22:35.357Z,30.25
2019-06-08T06:25:14.425Z,27.97
2019-06-08T06:27:49.632Z,22.37
2019-06-08T06:30:24.793Z,24.57
2019-06-08T06:32:58.178Z,23.33
2019-06-08T06:35:33.434Z,21.95
2019-06-08T06:38:08.995Z,25.17
2019-06-08T06:40:42.380Z,24.10
2019-06-08T06:43:18.728Z,26.97
2019-06-08T06:45:52.265Z,22.27
2019-06-08T06:48:27.896Z,18.07
2019-06-08T06:51:01.728Z,21.00
2019-06-08T06:53:36.134Z,23.67
2019-06-08T06:58:47.289Z,20.23
2019-06-08T07:01:20.986Z,30.90
2019-06-08T07:03:56.081Z,22.80
2019-06-08T07:06:29.680Z,24.95
2019-06-08T07:09:04.947Z,25.33
2019-06-08T07:11:38.469Z,24.18
2019-06-08T07:14:12.063Z,17.80
2019-06-08T07:16:46.380Z,16.63
2019-06-08T07:19:19.947Z,19.07
2019-06-08T07:21:54.710Z,16.93
2019-06-08T07:24:29.476Z,19.03
2019-06-08T07:27:22.800Z,19.83
2019-06-08T07:29:56.825Z,20.60
2019-06-08T07:32:34.704Z,28.65
2019-06-08T07:35:09.604Z,21.07
2019-06-08T07:37:44.738Z,17.90
2019-06-08T07:40:37.959Z,16.17
2019-06-08T07:43:13.120Z,16.52
2019-06-08T07:45:47.833Z,16.93
2019-06-08T07:48:21.843Z,13.72
2019-06-08T07:50:56.452Z,12.10
2019-06-08T07:53:31.911Z,14.90
2019-06-08T07:56:07.243Z,11.67
2019-06-08T07:58:41.697Z,18.80
2019-06-08T08:01:17.757Z,13.43
2019-06-08T08:03:54.120Z,16.93
2019-06-08T08:06:30.545Z,19.27
2019-06-08T08:09:06.430Z,18.15
2019-06-08T08:11:41.658Z,14.77
2019-06-08T08:14:16.675Z,12.80
2019-06-08T08:16:55.510Z,17.82
2019-06-08T08:19:29.843Z,21.40
2019-06-08T08:22:19.668Z,16.02
2019-06-08T08:24:43.064Z,13.40
2019-06-08T08:27:18.240Z,23.87
2019-06-08T08:29:53.411Z,25.07
2019-06-08T08:32:28.308Z,18.90
2019-06-08T08:35:03.389Z,21.87
2019-06-08T08:37:39.335Z,17.05
2019-06-08T08:40:14.570Z,19.70
2019-06-08T08:42:49.729Z,24.40
2019-06-08T08:45:27.473Z,20.57
2019-06-08T08:48:14.419Z,28.20
2019-06-08T08:50:35.125Z,19.53
2019-06-08T08:53:10.652Z,27.13
2019-06-08T08:55:48.134Z,24.50
2019-06-08T08:58:24.255Z,26.37
2019-06-08T09:01:03.937Z,21.75
2019-06-08T09:03:39.920Z,19.20
2019-06-08T09:06:18.108Z,24.43
2019-06-08T09:08:55.639Z,18.63
2019-06-08T09:11:32.829Z,28.52
2019-06-08T09:14:13.694Z,18.17
2019-06-08T09:16:44.750Z,26.53
2019-06-08T09:19:21.005Z,22.47
2019-06-08T09:21:56.005Z,23.85
2019-06-08T09:24:29.334Z,28.77
2019-06-08T09:27:04.694Z,31.13
2019-06-08T09:29:38.849Z,29.37
2019-06-08T09:32:18.296Z,33.97
2019-06-08T09:35:05.292Z,30.02
2019-06-08T09:37:42.296Z,31.23
2019-06-08T09:40:18.374Z,30.57
2019-06-08T09:43:01.040Z,30.27
2019-06-08T09:45:38.045Z,33.47
2019-06-08T09:48:18.049Z,32.38
2019-06-08T09:50:50.703Z,28.80
2019-06-08T09:53:37.141Z,32.40
2019-06-08T09:56:11.721Z,33.83
2019-06-08T09:58:51.150Z,28.87
2019-06-08T10:01:22.391Z,33.70
2019-06-08T10:04:02.369Z,37.95
2019-06-08T10:06:40.499Z,33.37
2019-06-08T10:09:18.477Z,37.08
2019-06-08T10:11:54.169Z,29.37
2019-06-08T10:14:29.148Z,30.47
2019-06-08T10:17:03.985Z,31.00
2019-06-08T10:19:39.329Z,35.78
2019-06-08T10:22:12.929Z,34.00
2019-06-08T10:24:49.003Z,29.83
2019-06-08T10:27:23.178Z,35.40
2019-06-08T10:30:02.850Z,32.03
2019-06-08T10:32:50.417Z,29.13
2019-06-08T10:35:21.936Z,24.87
2019-06-08T10:37:57.506Z,36.17
2019-06-08T10:40:31.836Z,35.23
2019-06-08T10:43:08.953Z,32.17
2019-06-08T10:46:06.812Z,33.57
2019-06-08T10:48:37.754Z,29.10
2019-06-08T10:51:13.335Z,28.77
2019-06-08T10:53:52.565Z,30.48
2019-06-08T10:56:31.102Z,29.67
2019-06-08T10:59:06.986Z,26.17
2019-06-08T11:01:43.137Z,35.05
2019-06-08T11:04:19.012Z,32.38
2019-06-08T11:07:03.384Z,45.28
2019-06-08T11:09:36.317Z,47.90
2019-06-08T11:12:15.195Z,39.30
2019-06-08T11:14:51.603Z,42.77
2019-06-08T11:17:30.183Z,37.65
2019-06-08T11:20:06.007Z,33.40
2019-06-08T11:22:38.980Z,27.55
2019-06-08T11:25:16.388Z,27.80
2019-06-08T11:27:49.000Z,25.45
2019-06-08T11:30:28.074Z,31.57
2019-06-08T11:33:01.731Z,31.90
2019-06-08T11:35:38.386Z,28.60
2019-06-08T11:38:13.523Z,28.33
2019-06-08T11:40:48.547Z,28.10
2019-06-08T11:43:23.594Z,28.37
2019-06-08T11:46:00.442Z,33.60
2019-06-08T11:48:38.021Z,26.00
2019-06-08T11:51:11.669Z,28.13
2019-06-08T11:53:44.473Z,28.17
2019-06-08T11:56:18.625Z,27.17
2019-06-08T11:58:54.037Z,24.70
2019-06-08T12:01:27.730Z,37.03
2019-06-08T12:04:03.596Z,29.07
2019-06-08T12:06:45.116Z,34.87
2019-06-08T12:09:22.412Z,49.05
2019-06-08T12:11:58.104Z,51.37
2019-06-08T12:14:33.728Z,47.27
2019-06-08T12:17:12.455Z,42.03
2019-06-08T12:19:43.331Z,38.05
2019-06-08T12:22:18.078Z,32.33
2019-06-08T12:24:54.635Z,28.93
2019-06-08T12:27:36.141Z,26.30
2019-06-08T12:30:08.777Z,25.60
2019-06-08T12:32:39.284Z,28.90
2019-06-08T12:35:13.853Z,27.95
2019-06-08T12:37:51.485Z,29.97
2019-06-08T12:40:23.488Z,31.73
2019-06-08T12:42:59.496Z,26.97
2019-06-08T12:45:33.952Z,23.07
2019-06-08T12:48:14.627Z,27.07
2019-06-08T12:50:47.838Z,27.87
2019-06-08T12:53:22.932Z,29.10
2019-06-08T12:55:57.919Z,41.47
2019-06-08T12:58:33.006Z,33.23
2019-06-08T13:01:08.205Z,37.77
2019-06-08T13:03:42.739Z,40.77
2019-06-08T13:06:18.298Z,36.50
2019-06-08T13:08:52.113Z,30.97
2019-06-08T13:11:28.059Z,31.53
2019-06-08T13:14:02.076Z,27.27
2019-06-08T13:16:38.211Z,27.13
2019-06-08T13:19:14.353Z,22.00
2019-06-08T13:21:49.092Z,28.03
2019-06-08T13:24:24.457Z,31.05
2019-06-08T13:26:59.330Z,25.67
2019-06-08T13:29:32.657Z,28.17
2019-06-08T13:32:07.885Z,26.40
2019-06-08T13:34:42.194Z,28.63
2019-06-08T13:37:19.302Z,28.83
2019-06-08T13:39:59.579Z,30.27
2019-06-08T13:42:33.004Z,30.47
2019-06-08T13:45:22.143Z,21.63
2019-06-08T13:47:58.526Z,30.03
2019-06-08T13:50:39.201Z,39.43
2019-06-08T13:53:26.712Z,31.57
2019-06-08T13:55:56.899Z,31.37
2019-06-08T13:58:33.336Z,31.87
2019-06-08T14:01:10.013Z,35.83
2019-06-08T14:03:45.179Z,34.93
2019-06-08T14:06:21.679Z,35.13
2019-06-08T14:08:58.003Z,35.85
2019-06-08T14:14:29.054Z,41.00
2019-06-08T14:17:03.106Z,27.35
2019-06-08T14:19:38.421Z,36.73
2019-06-08T14:22:11.507Z,34.90
2019-06-08T14:24:44.797Z,30.82
2019-06-08T14:27:19.760Z,28.13
2019-06-08T14:30:13.544Z,36.80
2019-06-08T14:32:47.897Z,32.87
2019-06-08T14:35:24.201Z,34.93
2019-06-08T14:37:59.391Z,30.50
2019-06-08T14:40:34.734Z,33.37
2019-06-08T14:43:10.678Z,37.17
2019-06-08T14:45:43.085Z,34.98
2019-06-08T14:48:18.972Z,37.73
2019-06-08T14:50:52.607Z,40.17
2019-06-08T14:53:26.948Z,32.57
2019-06-08T14:56:08.341Z,34.70
2019-06-08T14:58:44.776Z,36.10
2019-06-08T15:01:22.737Z,32.17
2019-06-08T15:03:58.580Z,33.83
2019-06-08T15:06:34.257Z,33.10
2019-06-08T15:09:08.654Z,28.03
2019-06-08T15:11:42.212Z,31.80
2019-06-08T15:14:21.531Z,27.00
2019-06-08T15:16:55.290Z,30.30
2019-06-08T15:19:30.405Z,37.50
2019-06-08T15:22:03.626Z,30.37
2019-06-08T15:24:38.531Z,24.60
2019-06-08T15:27:12.019Z,33.58
2019-06-08T15:29:48.223Z,28.73
2019-06-08T15:32:22.949Z,27.30
2019-06-08T15:35:00.053Z,26.00
2019-06-08T15:37:33.394Z,30.83
2019-06-08T15:40:09.228Z,25.23
2019-06-08T15:42:44.615Z,30.83
2019-06-08T15:45:22.374Z,26.90
2019-06-08T15:47:58.496Z,26.10
2019-06-08T15:50:30.629Z,26.53
2019-06-08T15:53:08.053Z,29.97
2019-06-08T15:55:41.944Z,26.05
2019-06-08T15:58:18.198Z,27.40
2019-06-08T16:00:55.428Z,29.70
2019-06-08T16:03:29.348Z,30.03
2019-06-08T16:06:04.571Z,32.75
2019-06-08T16:08:39.673Z,26.97
2019-06-08T16:11:13.526Z,33.57
2019-06-08T16:13:48.405Z,31.93
2019-06-08T16:16:25.196Z,36.67
2019-06-08T16:19:00.090Z,30.17
2019-06-08T16:21:34.284Z,35.47
2019-06-08T16:24:09.067Z,29.93
2019-06-08T16:26:52.620Z,31.93
2019-06-08T16:29:20.592Z,40.58
2019-06-08T16:31:55.510Z,32.90
2019-06-08T16:34:29.198Z,37.60
2019-06-08T16:37:02.881Z,37.07
2019-06-08T16:39:36.522Z,36.13
2019-06-08T16:42:11.442Z,41.77
2019-06-08T16:44:44.970Z,41.53
2019-06-08T16:47:20.433Z,41.73
2019-06-08T16:49:55.997Z,38.43
2019-06-08T16:52:30.354Z,39.67
2019-06-08T16:55:04.193Z,36.03
2019-06-08T16:57:39.531Z,39.83
2019-06-08T17:02:47.691Z,40.30
2019-06-08T17:05:23.154Z,45.37
2019-06-08T17:07:56.715Z,41.10
2019-06-08T17:10:30.483Z,50.07
2019-06-08T17:13:04.175Z,46.27
2019-06-08T17:15:40.896Z,42.60
2019-06-08T17:18:14.766Z,37.28
2019-06-08T17:20:49.792Z,44.27
2019-06-08T17:23:25.126Z,42.13
2019-06-08T17:26:00.312Z,43.77
2019-06-08T17:28:34.937Z,53.43
2019-06-08T17:31:09.694Z,61.00
2019-06-08T17:33:43.263Z,55.23
2019-06-08T17:36:16.807Z,57.73
2019-06-08T17:38:51.950Z,62.98
2019-06-08T17:41:26.836Z,63.37
2019-06-08T17:44:02.077Z,65.20
2019-06-08T17:46:39.046Z,59.90
2019-06-08T17:49:13.389Z,67.20
2019-06-08T17:51:48.262Z,73.60
2019-06-08T17:54:22.845Z,66.77
2019-06-08T17:56:56.430Z,67.23
2019-06-08T17:59:30.144Z,70.78
2019-06-08T18:02:08.043Z,66.13
2019-06-08T18:04:42.533Z,63.90
2019-06-08T18:07:17.132Z,67.00
2019-06-08T18:09:51.246Z,62.20
2019-06-08T18:12:27.134Z,75.90
2019-06-08T18:15:02.416Z,66.23
2019-06-08T18:17:39.117Z,56.07
2019-06-08T18:20:17.520Z,58.33
2019-06-08T18:22:50.327Z,59.07
2019-06-08T18:25:30.336Z,59.47
2019-06-08T18:28:10.226Z,50.30
2019-06-08T18:30:42.917Z,59.63
2019-06-08T18:33:18.062Z,57.93
2019-06-08T18:35:53.001Z,48.50
2019-06-08T18:38:27.801Z,42.53
2019-06-08T18:41:01.365Z,47.47
2019-06-08T18:43:35.088Z,41.35
2019-06-08T18:46:11.663Z,42.70
2019-06-08T18:48:49.206Z,38.40
2019-06-08T18:51:22.095Z,40.87
2019-06-08T18:54:08.521Z,41.83
2019-06-08T18:56:32.210Z,47.83
2019-06-08T18:59:07.597Z,47.97
2019-06-08T19:01:41.605Z,52.45
2019-06-08T19:04:16.652Z,44.97
2019-06-08T19:06:51.986Z,44.93
2019-06-08T19:09:27.103Z,42.33
2019-06-08T19:12:00.710Z,53.05
2019-06-08T19:14:37.812Z,43.73
2019-06-08T19:17:12.572Z,43.70
2019-06-08T19:19:51.906Z,38.37
2019-06-08T19:22:21.767Z,39.63
2019-06-08T19:24:55.276Z,42.17
2019-06-08T19:27:28.808Z,32.63
2019-06-08T19:30:02.317Z,33.10
2019-06-08T19:32:37.665Z,30.63
2019-06-08T19:35:11.804Z,33.17
2019-06-08T19:37:48.122Z,29.92
2019-06-08T19:40:21.893Z,33.53
2019-06-08T19:42:59.996Z,28.55
2019-06-08T19:45:31.686Z,29.30
2019-06-08T19:48:08.325Z,27.97
2019-06-08T19:50:42.860Z,24.57
2019-06-08T19:53:18.379Z,28.33
2019-06-08T19:55:54.062Z,32.43
2019-06-08T19:58:29.093Z,29.43
2019-06-08T20:01:03.970Z,24.40
2019-06-08T20:03:39.005Z,27.73
2019-06-08T20:06:14.381Z,32.00
2019-06-08T20:08:50.201Z,28.02
2019-06-08T20:11:24.617Z,29.23
2019-06-08T20:13:58.697Z,29.65
2019-06-08T20:16:34.037Z,29.27
2019-06-08T20:19:08.466Z,26.15
2019-06-08T20:21:42.825Z,27.50
2019-06-08T20:24:18.302Z,23.57
2019-06-08T20:26:53.419Z,23.23
2019-06-08T20:29:28.229Z,25.93
2019-06-08T20:32:02.428Z,30.02
2019-06-08T20:34:38.118Z,22.23
2019-06-08T20:37:11.909Z,24.52
2019-06-08T20:39:59.613Z,20.70
2019-06-08T20:42:20.334Z,28.77
2019-06-08T20:44:53.844Z,25.70
2019-06-08T20:47:28.637Z,25.70
2019-06-08T20:50:02.034Z,27.60
2019-06-08T20:52:37.809Z,26.43
2019-06-08T20:55:12.709Z,26.70
2019-06-08T20:57:48.170Z,27.40
2019-06-08T21:00:22.903Z,33.18
2019-06-08T21:03:02.552Z,26.97
2019-06-08T21:05:32.406Z,24.85
2019-06-08T21:08:25.388Z,26.77
2019-06-08T21:10:59.340Z,31.50
2019-06-08T21:13:34.650Z,27.33
2019-06-08T21:16:08.712Z,29.60
2019-06-08T21:18:44.696Z,28.00
2019-06-08T21:21:20.157Z,26.87
2019-06-08T21:24:00.543Z,29.57
2019-06-08T21:26:32.164Z,32.60
2019-06-08T21:29:08.076Z,28.43
2019-06-08T21:31:42.039Z,26.85
2019-06-08T21:34:18.167Z,27.90
2019-06-08T21:36:56.470Z,25.40
2019-06-08T21:39:31.165Z,27.73
2019-06-08T21:42:07.740Z,25.97
2019-06-08T21:44:41.729Z,25.10
2019-06-08T21:47:15.604Z,30.53
2019-06-08T21:49:51.654Z,26.27
2019-06-08T21:52:27.994Z,25.33
2019-06-08T21:55:03.484Z,30.40
2019-06-08T21:57:38.532Z,31.23
2019-06-08T22:00:34.835Z,27.85
2019-06-08T22:02:49.508Z,22.57
2019-06-08T22:05:23.619Z,27.05
2019-06-08T22:08:00.021Z,27.45
2019-06-08T22:10:33.722Z,26.52
2019-06-08T22:13:08.626Z,29.73
2019-06-08T22:15:44.090Z,25.10
2019-06-08T22:18:18.455Z,25.63
2019-06-08T22:20:53.161Z,28.77
2019-06-08T22:23:28.857Z,27.03
2019-06-08T22:26:04.086Z,32.38
2019-06-08T22:28:39.883Z,27.60
2019-06-08T22:31:17.059Z,26.60
2019-06-08T22:33:54.233Z,33.27
2019-06-08T22:36:28.505Z,27.77
2019-06-08T22:39:03.901Z,28.67
2019-06-08T22:41:39.772Z,29.60
2019-06-08T22:44:14.019Z,26.45
2019-06-08T22:46:49.539Z,37.53
2019-06-08T22:49:44.192Z,26.80
2019-06-08T22:52:18.607Z,25.80
2019-06-08T22:54:55.634Z,27.13
2019-06-08T22:57:28.837Z,26.17
2019-06-08T23:00:12.416Z,25.43
2019-06-08T23:02:38.379Z,30.10
2019-06-08T23:05:12.515Z,27.98
2019-06-08T23:07:48.778Z,29.67
2019-06-08T23:10:22.345Z,32.38
2019-06-08T23:12:59.465Z,24.50
2019-06-08T23:15:33.972Z,22.03
2019-06-08T23:18:09.397Z,20.83
2019-06-08T23:20:42.631Z,24.32
2019-06-08T23:23:17.879Z,22.93
2019-06-08T23:25:52.855Z,21.27
2019-06-08T23:28:28.238Z,28.57
2019-06-08T23:31:13.694Z,20.07
2019-06-08T23:33:39.667Z,22.17
2019-06-08T23:38:49.449Z,21.48
2019-06-08T23:41:23.193Z,21.77
2019-06-08T23:43:59.425Z,21.43
2019-06-08T23:46:32.913Z,20.80
2019-06-08T23:49:08.997Z,23.43
2019-06-08T23:51:43.977Z,26.30
2019-06-08T23:54:18.966Z,20.03
2019-06-08T23:56:53.798Z,24.03
2019-06-08T23:59:28.481Z,22.67
